Time;durP1;ratioP1;P1;durP2;ratioP2;P2;SDS_P1;SDS_P2;PMS_P1;PMS_P2;Temp;Humidity;BMP_temperature;BMP_pressure;BME280_temperature;BME280_humidity;BME280_pressure;Samples;Min_cycle;Max_cycle;Signal;HPM_P1;HPM_P2
2023/07/01 00:02:17;;;;;;;0.52;0.43;;;21.10;52.00;;;;;;5093312;28;20396;-80
2023/07/01 00:04:43;;;;;;;0.28;0.20;;;21.10;52.00;;;;;;5099100;28;20028;-80
2023/07/01 00:07:09;;;;;;;0.43;0.38;;;21.10;52.20;;;;;;5102241;28;20038;-76
2023/07/01 00:09:35;;;;;;;;;;;21.20;52.10;;;;;;5092012;28;20054;-77
2023/07/01 00:12:02;;;;;;;0.30;0.25;;;21.20;51.90;;;;;;5103057;28;19916;-77
2023/07/01 00:14:28;;;;;;;0.43;0.43;;;21.10;51.80;;;;;;5089435;28;20036;-77
2023/07/01 00:16:54;;;;;;;;;;;21.10;52.10;;;;;;5085159;28;20042;-80
2023/07/01 00:19:21;;;;;;;1.02;0.57;;;21.10;52.20;;;;;;5102250;28;19938;-77
2023/07/01 00:21:47;;;;;;;0.68;0.57;;;21.10;52.20;;;;;;5092657;28;20047;-80
2023/07/01 00:24:13;;;;;;;0.85;0.38;;;21.10;52.90;;;;;;5091421;28;20496;-77
2023/07/01 00:26:39;;;;;;;;;;;21.10;53.00;;;;;;5091126;28;20139;-78
2023/07/01 00:29:05;;;;;;;1.75;0.73;;;21.00;53.00;;;;;;5091417;28;20007;-77
2023/07/01 00:31:31;;;;;;;;;;;21.10;53.30;;;;;;5091683;28;20070;-77
2023/07/01 00:33:57;;;;;;;2.58;0.75;;;21.10;53.10;;;;;;5092749;28;19916;-77
2023/07/01 00:36:23;;;;;;;;;;;21.10;52.80;;;;;;5091563;28;20036;-77
2023/07/01 00:38:49;;;;;;;1.40;0.57;;;21.00;52.60;;;;;;5091505;28;19994;-76
2023/07/01 00:41:17;;;;;;;;;;;21.00;52.60;;;;;;5093045;28;20036;-77
2023/07/01 00:43:44;;;;;;;0.20;0.20;;;21.10;52.50;;;;;;5091445;28;19956;-80
2023/07/01 00:46:10;;;;;;;0.30;0.30;;;21.10;52.20;;;;;;5074056;28;20032;-77
2023/07/01 00:48:36;;;;;;;;;;;21.10;52.10;;;;;;5075056;28;20435;-79
2023/07/01 00:51:02;;;;;;;0.77;0.65;;;21.10;52.10;;;;;;5074184;28;20010;-77
2023/07/01 00:53:28;;;;;;;;;;;21.10;52.00;;;;;;5091863;28;20149;-79
2023/07/01 00:55:55;;;;;;;0.43;0.30;;;21.10;51.50;;;;;;5091282;28;19916;-76
2023/07/01 00:58:21;;;;;;;;;;;21.00;52.50;;;;;;5092246;28;20032;-78
2023/07/01 01:00:47;;;;;;;1.05;0.30;;;21.00;52.30;;;;;;5090711;28;19969;-80
2023/07/01 01:03:33;;;;;;;;;;;21.00;52.70;;;;;;5092062;28;20493;-79
2023/07/01 01:06:39;;;;;;;0.50;0.38;;;21.00;52.60;;;;;;5074065;28;19920;-80
2023/07/01 01:09:43;;;;;;;1.35;1.20;;;20.90;52.80;;;;;;5074125;28;20044;-79
2023/07/01 01:12:12;;;;;;;1.13;0.40;;;21.00;52.90;;;;;;5092598;28;20036;-80
2023/07/01 01:14:40;;;;;;;0.20;0.20;;;20.90;52.80;;;;;;5091143;28;20405;-80
2023/07/01 01:17:15;;;;;;;0.20;0.20;;;20.90;52.60;;;;;;5091135;28;20086;-77
2023/07/01 01:20:20;;;;;;;0.30;0.20;;;20.90;52.60;;;;;;5091196;28;20148;-77
2023/07/01 01:23:42;;;;;;;0.30;0.22;;;20.90;52.50;;;;;;5092397;28;20075;-77
2023/07/01 01:26:32;;;;;;;0.63;0.52;;;21.00;52.70;;;;;;5092178;28;20037;-80
2023/07/01 01:28:58;;;;;;;1.23;0.40;;;20.90;52.90;;;;;;5091114;28;20457;-77
2023/07/01 01:31:28;;;;;;;;;;;20.90;53.60;;;;;;5092021;28;20089;-77
2023/07/01 01:33:54;;;;;;;0.20;0.20;;;20.80;54.50;;;;;;5078451;28;20395;-77
2023/07/01 01:37:01;;;;;;;;;;;20.80;54.00;;;;;;5077990;28;20032;-80
2023/07/01 01:39:33;;;;;;;0.43;0.30;;;20.80;53.80;;;;;;5094668;28;19961;-77
2023/07/01 01:42:26;;;;;;;0.20;0.20;;;20.70;54.20;;;;;;5094454;28;20036;-78
2023/07/01 01:44:55;;;;;;;1.42;0.50;;;20.70;54.50;;;;;;5077972;28;20028;-78
2023/07/01 01:47:25;;;;;;;0.30;0.30;;;20.70;54.80;;;;;;5094506;28;20495;-80
2023/07/01 01:49:56;;;;;;;0.20;0.20;;;20.70;55.00;;;;;;5094499;28;20089;-80
2023/07/01 01:52:22;;;;;;;0.68;0.68;;;20.70;55.20;;;;;;5077271;28;20473;-80
2023/07/01 01:54:54;;;;;;;0.40;0.30;;;20.60;55.10;;;;;;5077514;28;20047;-77
2023/07/01 01:57:20;;;;;;;0.63;0.35;;;20.70;55.40;;;;;;5094244;28;20032;-77
2023/07/01 01:59:47;;;;;;;0.32;0.30;;;20.60;55.50;;;;;;5095556;28;20040;-81
2023/07/01 02:02:13;;;;;;;0.68;0.30;;;20.60;55.10;;;;;;5094042;28;20032;-77
2023/07/01 02:04:39;;;;;;;1.65;0.60;;;20.60;55.00;;;;;;5077308;28;20401;-79
2023/07/01 02:07:06;;;;;;;0.43;0.28;;;20.70;55.50;;;;;;5095525;28;20070;-77
2023/07/01 02:09:32;;;;;;;0.38;0.20;;;20.70;55.50;;;;;;5094087;28;20047;-81
2023/07/01 02:11:58;;;;;;;0.70;0.50;;;20.70;55.30;;;;;;5076710;28;20039;-80
2023/07/01 02:14:24;;;;;;;;;;;20.70;56.00;;;;;;5094423;28;20043;-81
2023/07/01 02:16:51;;;;;;;0.82;0.50;;;20.70;55.80;;;;;;5093882;28;19915;-80
2023/07/01 02:19:18;;;;;;;0.75;0.50;;;20.70;55.00;;;;;;5094011;28;20040;-80
2023/07/01 02:21:44;;;;;;;0.52;0.30;;;20.60;55.30;;;;;;5093604;28;20036;-79
2023/07/01 02:24:10;;;;;;;;;;;20.60;55.40;;;;;;5094290;28;20507;-78
2023/07/01 02:26:36;;;;;;;0.60;0.50;;;20.70;54.80;;;;;;5094854;28;19941;-77
2023/07/01 02:29:02;;;;;;;0.55;0.55;;;20.70;54.60;;;;;;5076789;28;20105;-80
2023/07/01 02:31:29;;;;;;;0.45;0.40;;;20.70;55.20;;;;;;5093326;28;20059;-80
2023/07/01 02:34:00;;;;;;;0.40;0.32;;;20.70;55.20;;;;;;5093590;28;20373;-77
2023/07/01 02:36:26;;;;;;;0.47;0.47;;;20.70;55.30;;;;;;5076593;28;20067;-78
2023/07/01 02:38:52;;;;;;;0.55;0.38;;;20.70;54.80;;;;;;5093547;28;20391;-78
2023/07/01 02:41:18;;;;;;;;;;;20.80;55.10;;;;;;5076856;28;20427;-77
2023/07/01 02:43:44;;;;;;;0.20;0.20;;;20.70;55.00;;;;;;5093941;28;19920;-80
2023/07/01 02:46:10;;;;;;;;;;;20.70;55.00;;;;;;5093681;28;20060;-80
2023/07/01 02:48:36;;;;;;;0.22;0.22;;;20.70;55.10;;;;;;5094654;28;19966;-80
2023/07/01 02:51:02;;;;;;;0.20;0.20;;;20.70;55.10;;;;;;5093159;28;20472;-80
2023/07/01 02:53:29;;;;;;;0.30;0.30;;;20.70;55.30;;;;;;5094581;28;20044;-78
2023/07/01 02:55:54;;;;;;;;;;;20.70;55.50;;;;;;5076400;28;20032;-77
2023/07/01 02:58:22;;;;;;;1.20;0.52;;;20.60;55.50;;;;;;5093321;28;19941;-80
2023/07/01 03:00:48;;;;;;;0.82;0.70;;;20.60;55.60;;;;;;5092485;28;20042;-78
2023/07/01 03:03:14;;;;;;;;;;;20.50;55.90;;;;;;5093702;28;20035;-79
2023/07/01 03:05:40;;;;;;;0.30;0.30;;;20.50;56.10;;;;;;5075574;28;19916;-78
2023/07/01 03:08:07;;;;;;;0.20;0.20;;;20.50;56.10;;;;;;5076137;28;20039;-80
2023/07/01 03:10:34;;;;;;;0.57;0.38;;;20.50;56.10;;;;;;5075432;28;20044;-80
2023/07/01 03:13:01;;;;;;;0.55;0.30;;;20.50;56.40;;;;;;5092998;28;20032;-80
2023/07/01 03:15:27;;;;;;;0.90;0.60;;;20.40;56.30;;;;;;5092051;28;20086;-77
2023/07/01 03:17:53;;;;;;;;;;;20.40;56.80;;;;;;5076420;28;20055;-78
2023/07/01 03:23:04;;;;;;;0.10;0.10;;;20.40;56.90;;;;;;5093130;28;20136;-77
2023/07/01 03:25:31;;;;;;;;;;;20.30;57.20;;;;;;5093981;28;20042;-80
2023/07/01 03:27:57;;;;;;;0.90;0.28;;;20.30;57.20;;;;;;5075822;28;19916;-77
2023/07/01 03:30:29;;;;;;;;;;;20.20;57.20;;;;;;5092357;28;20057;-80
2023/07/01 03:32:56;;;;;;;0.55;0.50;;;20.10;57.60;;;;;;5075708;28;19951;-77
2023/07/01 03:35:22;;;;;;;0.28;0.28;;;20.10;58.20;;;;;;5092998;28;20642;-80
2023/07/01 03:37:48;;;;;;;0.63;0.40;;;20.10;57.50;;;;;;5075514;28;20042;-78
2023/07/01 03:40:14;;;;;;;;;;;20.10;58.10;;;;;;5092642;28;20081;-80
2023/07/01 03:42:42;;;;;;;1.10;0.28;;;20.10;58.30;;;;;;5075459;28;20374;-79
2023/07/01 03:45:10;;;;;;;0.63;0.60;;;20.10;58.20;;;;;;5074878;28;20024;-77
2023/07/01 03:47:55;;;;;;;0.15;0.15;;;20.10;58.30;;;;;;5092257;28;20028;-80
2023/07/01 03:50:21;;;;;;;0.28;0.20;;;20.10;58.60;;;;;;5074706;28;20122;-80
2023/07/01 03:52:47;;;;;;;;;;;20.10;58.60;;;;;;5094022;28;20028;-79
2023/07/01 03:55:14;;;;;;;0.47;0.40;;;20.10;58.60;;;;;;5090570;28;20444;-79
2023/07/01 03:57:41;;;;;;;0.75;0.57;;;20.10;58.50;;;;;;5075196;28;20123;-79
2023/07/01 04:00:08;;;;;;;0.20;0.20;;;20.20;58.50;;;;;;5091701;28;20038;-79
2023/07/01 04:02:37;;;;;;;1.55;0.43;;;20.20;58.50;;;;;;5075226;28;20146;-77
2023/07/01 04:05:10;;;;;;;0.40;0.40;;;20.30;58.50;;;;;;5091832;28;20366;-79
2023/07/01 04:07:55;;;;;;;0.20;0.20;;;20.30;58.50;;;;;;5092023;28;20036;-79
2023/07/01 04:10:21;;;;;;;0.80;0.75;;;20.40;58.40;;;;;;5091334;28;20132;-77
2023/07/01 04:12:47;;;;;;;;;;;20.40;58.30;;;;;;5075543;28;20036;-79
2023/07/01 04:15:13;;;;;;;0.43;0.32;;;20.40;58.50;;;;;;5074455;28;19934;-80
2023/07/01 04:17:45;;;;;;;1.88;1.33;;;20.40;58.70;;;;;;5075043;28;20119;-77
2023/07/01 04:20:13;;;;;;;1.58;1.23;;;20.40;58.70;;;;;;5091120;28;20058;-78
2023/07/01 04:22:39;;;;;;;0.63;0.63;;;20.40;58.40;;;;;;5091833;28;20040;-78
2023/07/01 04:25:07;;;;;;;0.63;0.50;;;20.40;58.20;;;;;;5074416;28;20032;-77
2023/07/01 04:27:34;;;;;;;0.77;0.77;;;20.60;58.00;;;;;;5074715;28;20123;-79
2023/07/01 04:30:00;;;;;;;0.45;0.45;;;20.60;57.90;;;;;;5091388;28;20052;-80
2023/07/01 04:32:28;;;;;;;0.45;0.45;;;20.70;58.10;;;;;;5091006;28;20043;-77
2023/07/01 04:34:55;;;;;;;1.23;0.38;;;20.80;58.10;;;;;;5091453;28;20074;-77
2023/07/01 04:37:21;;;;;;;0.10;0.10;;;20.80;58.00;;;;;;5092874;28;20042;-77
2023/07/01 04:39:48;;;;;;;0.60;0.60;;;20.90;57.30;;;;;;5091522;28;20036;-79
2023/07/01 04:42:14;;;;;;;0.55;0.43;;;21.00;57.60;;;;;;5091316;28;20050;-77
2023/07/01 04:44:40;;;;;;;;;;;21.00;57.50;;;;;;5091894;28;20493;-79
2023/07/01 04:47:07;;;;;;;0.88;0.70;;;21.10;57.50;;;;;;5074584;28;19931;-78
2023/07/01 04:49:33;;;;;;;0.73;0.50;;;21.10;57.40;;;;;;5091302;28;20040;-80
2023/07/01 04:51:59;;;;;;;0.63;0.30;;;21.10;57.40;;;;;;5091219;28;20499;-79
2023/07/01 04:54:25;;;;;;;0.32;0.32;;;21.20;57.20;;;;;;5074427;28;20044;-76
2023/07/01 04:56:51;;;;;;;0.15;0.15;;;21.20;57.30;;;;;;5092489;28;20042;-78
2023/07/01 04:59:17;;;;;;;;;;;21.20;57.30;;;;;;5091903;28;20040;-78
2023/07/01 05:01:43;;;;;;;0.50;0.50;;;21.20;57.60;;;;;;5091117;28;20403;-79
2023/07/01 05:04:09;;;;;;;;;;;21.30;58.20;;;;;;5091869;28;20036;-80
2023/07/01 05:06:35;;;;;;;1.35;1.02;;;21.30;57.50;;;;;;5092026;28;20010;-77
2023/07/01 05:09:03;;;;;;;0.40;0.40;;;21.30;57.30;;;;;;5078121;28;20060;-77
2023/07/01 05:11:29;;;;;;;0.38;0.22;;;21.30;57.70;;;;;;5095002;28;20106;-77
2023/07/01 05:13:55;;;;;;;0.63;0.47;;;21.20;57.60;;;;;;5094991;28;20032;-79
2023/07/01 05:16:21;;;;;;;;;;;21.20;57.90;;;;;;5095342;28;20507;-80
2023/07/01 05:18:46;;;;;;;0.10;0.10;;;21.20;57.80;;;;;;5095133;28;19959;-80
2023/07/01 05:21:12;;;;;;;;;;;21.20;57.70;;;;;;5078283;28;20082;-78
2023/07/01 05:23:38;;;;;;;0.65;0.30;;;21.20;57.90;;;;;;5094925;28;20380;-80
2023/07/01 05:26:05;;;;;;;0.20;0.20;;;21.30;57.80;;;;;;5078101;28;20035;-80
2023/07/01 05:28:30;;;;;;;;;;;21.40;57.80;;;;;;5095481;28;20098;-77
2023/07/01 05:30:56;;;;;;;0.75;0.60;;;21.40;58.00;;;;;;5094580;28;19940;-78
2023/07/01 05:33:22;;;;;;;0.88;0.80;;;21.40;58.40;;;;;;5094807;28;20028;-80
2023/07/01 05:35:48;;;;;;;5.68;1.15;;;21.50;58.30;;;;;;5094198;28;20516;-81
2023/07/01 05:38:14;;;;;;;;;;;21.60;58.20;;;;;;5095405;28;20082;-79
2023/07/01 05:40:40;;;;;;;1.10;0.55;;;21.60;58.30;;;;;;5077396;28;19915;-81
2023/07/01 05:43:06;;;;;;;0.60;0.40;;;21.70;57.80;;;;;;5094884;28;20040;-80
2023/07/01 05:45:32;;;;;;;;;;;21.80;57.60;;;;;;5077613;28;20127;-78
2023/07/01 05:47:58;;;;;;;0.63;0.32;;;21.80;57.50;;;;;;5077712;28;20269;-80
2023/07/01 05:50:24;;;;;;;0.40;0.30;;;21.90;57.40;;;;;;5094141;28;20040;-80
2023/07/01 05:52:50;;;;;;;0.22;0.22;;;22.00;57.40;;;;;;5077578;28;20040;-78
2023/07/01 05:55:16;;;;;;;;;;;22.10;57.40;;;;;;5095574;28;20068;-77
2023/07/01 05:57:42;;;;;;;0.52;0.52;;;22.10;57.40;;;;;;5094346;28;19915;-80
2023/07/01 06:00:12;;;;;;;0.68;0.50;;;22.10;57.40;;;;;;5076812;28;20028;-78
2023/07/01 06:02:40;;;;;;;0.30;0.30;;;22.10;57.40;;;;;;5094379;28;20159;-78
2023/07/01 06:05:08;;;;;;;0.55;0.32;;;22.20;57.40;;;;;;5077089;28;20035;-81
2023/07/01 06:07:34;;;;;;;0.20;0.20;;;22.30;57.30;;;;;;5094460;28;20024;-80
2023/07/01 06:10:00;;;;;;;0.90;0.45;;;22.30;56.70;;;;;;5076922;28;20055;-78
2023/07/01 06:12:26;;;;;;;0.57;0.43;;;22.30;56.50;;;;;;5094070;28;20417;-79
2023/07/01 06:14:52;;;;;;;0.70;0.40;;;22.30;56.60;;;;;;5076961;28;20028;-80
2023/07/01 06:17:18;;;;;;;;;;;22.40;56.80;;;;;;5095678;28;20036;-78
2023/07/01 06:19:44;;;;;;;0.45;0.45;;;22.40;56.70;;;;;;5076165;28;19924;-78
2023/07/01 06:22:10;;;;;;;0.98;0.45;;;22.40;57.00;;;;;;5076723;28;20024;-79
2023/07/01 06:24:36;;;;;;;;;;;22.40;57.30;;;;;;5094350;28;20400;-80
2023/07/01 06:27:03;;;;;;;0.75;0.50;;;22.50;57.50;;;;;;5093568;28;20002;-81
2023/07/01 06:29:29;;;;;;;1.02;0.93;;;22.50;56.80;;;;;;5093814;28;20036;-78
2023/07/01 06:31:55;;;;;;;;;;;22.60;57.20;;;;;;5095498;28;20020;-82
2023/07/01 06:34:21;;;;;;;0.65;0.40;;;22.70;57.20;;;;;;5093670;28;19920;-81
2023/07/01 06:36:47;;;;;;;;;;;22.80;57.30;;;;;;5093913;28;20028;-77
2023/07/01 06:39:14;;;;;;;0.73;0.65;;;22.80;57.10;;;;;;5094876;28;20345;-79
2023/07/01 06:41:40;;;;;;;0.20;0.20;;;22.90;56.20;;;;;;5093202;28;20050;-78
2023/07/01 06:44:05;;;;;;;;;;;23.10;56.70;;;;;;5077093;28;20036;-79
2023/07/01 06:46:32;;;;;;;0.65;0.65;;;23.20;56.70;;;;;;5093020;28;20002;-78
2023/07/01 06:48:58;;;;;;;0.52;0.40;;;23.20;56.70;;;;;;5093455;28;20467;-81
2023/07/01 06:51:24;;;;;;;0.28;0.20;;;23.20;56.60;;;;;;5093067;28;20493;-80
2023/07/01 06:53:50;;;;;;;;;;;23.20;56.90;;;;;;5093837;28;20047;-78
2023/07/01 06:56:16;;;;;;;0.38;0.30;;;23.20;57.00;;;;;;5092958;28;19912;-78
2023/07/01 06:58:42;;;;;;;;;;;23.10;57.20;;;;;;5093594;28;20036;-79
2023/07/01 07:01:08;;;;;;;0.50;0.47;;;23.20;57.10;;;;;;5076058;28;19995;-81
2023/07/01 07:03:37;;;;;;;1.00;0.65;;;23.30;57.10;;;;;;5076282;28;20156;-82
2023/07/01 07:06:03;;;;;;;1.85;1.40;;;23.20;56.90;;;;;;5092762;28;20032;-82
2023/07/01 07:08:29;;;;;;;0.40;0.30;;;23.30;56.90;;;;;;5093071;28;20148;-81
2023/07/01 07:10:55;;;;;;;;;;;23.30;57.30;;;;;;5076056;28;20135;-79
2023/07/01 07:13:21;;;;;;;0.35;0.35;;;23.40;57.10;;;;;;5093167;28;20007;-78
2023/07/01 07:15:47;;;;;;;;;;;23.40;57.10;;;;;;5092796;28;20032;-78
2023/07/01 07:18:13;;;;;;;0.32;0.30;;;23.30;57.40;;;;;;5093105;28;19916;-82
2023/07/01 07:20:39;;;;;;;;;;;23.30;57.50;;;;;;5092779;28;20119;-81
2023/07/01 07:25:50;;;;;;;0.75;0.55;;;23.20;57.20;;;;;;5092688;28;20112;-82
2023/07/01 07:28:16;;;;;;;;;;;23.10;58.20;;;;;;5093279;28;20039;-78
2023/07/01 07:30:42;;;;;;;0.27;0.27;;;23.00;58.30;;;;;;5092053;28;20360;-81
2023/07/01 07:33:09;;;;;;;1.30;1.05;;;23.00;58.60;;;;;;5075965;28;20032;-81
2023/07/01 07:35:34;;;;;;;;;;;22.90;59.00;;;;;;5092485;28;20040;-78
2023/07/01 07:38:00;;;;;;;0.90;0.68;;;22.90;59.10;;;;;;5092686;28;20391;-79
2023/07/01 07:40:26;;;;;;;;;;;22.80;59.60;;;;;;5092596;28;20437;-82
2023/07/01 07:42:53;;;;;;;0.68;0.68;;;22.70;59.60;;;;;;5075788;28;19916;-79
2023/07/01 07:45:39;;;;;;;0.60;0.60;;;22.70;60.20;;;;;;5092663;28;20081;-86
2023/07/01 07:48:06;;;;;;;1.65;0.82;;;22.60;60.70;;;;;;5093894;28;20043;-79
2023/07/01 07:50:35;;;;;;;1.30;0.80;;;22.50;61.60;;;;;;5074743;28;20103;-81
2023/07/01 07:53:03;;;;;;;0.30;0.30;;;22.40;62.60;;;;;;5075621;28;20096;-78
2023/07/01 07:55:33;;;;;;;0.47;0.32;;;22.40;63.30;;;;;;5074803;28;20032;-77
2023/07/01 07:58:18;;;;;;;2.03;1.35;;;22.30;64.00;;;;;;5076057;28;20710;-80
2023/07/01 08:00:44;;;;;;;0.57;0.50;;;22.20;64.20;;;;;;5092898;28;20043;-80
2023/07/01 08:03:12;;;;;;;;;;;22.20;65.30;;;;;;5092847;28;20500;-77
2023/07/01 08:05:38;;;;;;;1.27;0.70;;;22.20;64.60;;;;;;5091659;28;19938;-88
2023/07/01 08:08:04;;;;;;;;;;;22.20;65.60;;;;;;5093061;28;20028;-79
2023/07/01 08:10:30;;;;;;;1.27;0.82;;;22.10;64.50;;;;;;5091948;28;19984;-91
2023/07/01 08:12:56;;;;;;;0.22;0.22;;;22.10;66.20;;;;;;5093947;28;20028;-82
2023/07/01 08:15:22;;;;;;;;;;;22.00;66.70;;;;;;5075711;28;20089;-81
2023/07/01 08:17:48;;;;;;;1.58;0.90;;;21.90;66.90;;;;;;5093132;28;19922;-82
2023/07/01 08:20:14;;;;;;;;;;;21.90;68.40;;;;;;5093401;28;20082;-80
2023/07/01 08:22:40;;;;;;;0.80;0.80;;;21.80;68.90;;;;;;5092280;28;19920;-84
2023/07/01 08:25:06;;;;;;;;;;;21.70;70.30;;;;;;5092116;28;20056;-81
2023/07/01 08:27:32;;;;;;;1.50;0.83;;;21.60;69.90;;;;;;5075356;28;20019;-82
2023/07/01 08:29:58;;;;;;;1.40;0.50;;;21.60;71.50;;;;;;5092010;28;20036;-87
2023/07/01 08:32:24;;;;;;;1.92;0.70;;;21.50;72.10;;;;;;5075153;28;20431;-85
2023/07/01 08:34:50;;;;;;;;;;;21.40;72.20;;;;;;5092592;28;20024;-87
2023/07/01 08:37:16;;;;;;;0.20;0.20;;;21.40;72.00;;;;;;5093518;28;20249;-82
2023/07/01 08:39:42;;;;;;;;;;;21.30;73.20;;;;;;5092682;28;20036;-88
2023/07/01 08:42:13;;;;;;;0.65;0.40;;;21.20;73.10;;;;;;5077491;28;19919;-84
2023/07/01 08:44:41;;;;;;;0.75;0.22;;;21.20;74.20;;;;;;5097087;28;20070;-89
2023/07/01 08:47:08;;;;;;;0.68;0.28;;;21.20;74.80;;;;;;5096688;28;20460;-90
2023/07/01 08:49:35;;;;;;;0.30;0.30;;;21.30;74.50;;;;;;5096759;28;20064;-90
2023/07/01 08:52:22;;;;;;;0.35;0.30;;;21.30;74.70;;;;;;5080142;28;20028;-88
2023/07/01 08:54:49;;;;;;;1.33;1.10;;;21.40;74.20;;;;;;5079753;28;20047;-86
2023/07/01 08:57:15;;;;;;;0.30;0.30;;;21.50;74.30;;;;;;5079491;28;20077;-90
2023/07/01 08:59:43;;;;;;;0.40;0.40;;;21.60;73.90;;;;;;5096633;28;20109;-88
2023/07/01 09:02:10;;;;;;;0.30;0.30;;;21.70;73.70;;;;;;5096455;28;20433;-87
2023/07/01 09:04:39;;;;;;;1.38;0.95;;;21.90;72.80;;;;;;5096626;28;20489;-87
2023/07/01 09:07:05;;;;;;;0.20;0.20;;;22.10;71.70;;;;;;5096549;28;20056;-89
2023/07/01 09:09:33;;;;;;;0.30;0.30;;;22.20;70.90;;;;;;5079044;28;20052;-84
2023/07/01 09:11:59;;;;;;;2.72;1.90;;;22.40;70.90;;;;;;5096890;28;20055;-87
2023/07/01 09:14:25;;;;;;;;;;;22.50;71.00;;;;;;5096523;28;20036;-86
2023/07/01 09:16:51;;;;;;;0.65;0.45;;;22.50;71.10;;;;;;5096043;28;20075;-87
2023/07/01 09:19:21;;;;;;;;;;;22.50;71.00;;;;;;5096690;28;20036;-87
2023/07/01 09:21:47;;;;;;;0.40;0.35;;;22.60;71.00;;;;;;5095923;28;19922;-84
2023/07/01 09:24:13;;;;;;;;;;;22.50;70.70;;;;;;5096558;28;20028;-83
2023/07/01 09:26:40;;;;;;;0.30;0.30;;;22.50;71.40;;;;;;5095528;28;19999;-84
2023/07/01 09:29:31;;;;;;;3.00;0.93;;;22.50;70.90;;;;;;5095847;28;20042;-83
2023/07/01 09:31:57;;;;;;;1.15;0.68;;;22.60;70.70;;;;;;5095441;28;20029;-84
2023/07/01 09:34:24;;;;;;;;;;;22.60;70.50;;;;;;5095840;28;20085;-80
2023/07/01 09:36:50;;;;;;;0.63;0.50;;;22.60;70.30;;;;;;5078156;28;20003;-82
2023/07/01 09:39:31;;;;;;;;;;;22.70;70.70;;;;;;5095855;28;20039;-81
2023/07/01 09:42:18;;;;;;;0.20;0.20;;;22.70;70.50;;;;;;5096729;28;20365;-83
2023/07/01 09:45:05;;;;;;;1.58;0.55;;;22.90;70.00;;;;;;5078751;28;20385;-89
2023/07/01 09:47:33;;;;;;;0.85;0.45;;;22.90;69.40;;;;;;5078806;28;20044;-88
2023/07/01 09:50:18;;;;;;;0.50;0.40;;;23.00;68.90;;;;;;5078394;28;20529;-82
2023/07/01 09:52:44;;;;;;;0.20;0.20;;;23.00;69.40;;;;;;5095675;28;20047;-80
2023/07/01 09:55:10;;;;;;;0.77;0.47;;;23.10;69.20;;;;;;5096155;28;20450;-92
2023/07/01 09:57:37;;;;;;;0.52;0.30;;;23.10;68.90;;;;;;5078886;28;20075;-88
2023/07/01 10:00:03;;;;;;;0.88;0.43;;;23.10;68.90;;;;;;5094553;28;20027;-80
2023/07/01 10:02:29;;;;;;;0.30;0.30;;;23.10;68.40;;;;;;5078627;28;20032;-87
2023/07/01 10:04:55;;;;;;;;;;;23.20;69.10;;;;;;5078486;28;20032;-80
2023/07/01 10:07:21;;;;;;;0.10;0.10;;;23.40;68.70;;;;;;5094537;28;19912;-82
2023/07/01 10:09:48;;;;;;;0.43;0.43;;;23.40;67.90;;;;;;5077606;28;20488;-87
2023/07/01 10:15:02;;;;;;;0.95;0.30;;;23.50;67.10;;;;;;5095154;28;20047;-86
2023/07/01 10:18:02;;;;;;;1.15;0.75;;;23.50;67.00;;;;;;5094313;28;20028;-88
2023/07/01 10:20:31;;;;;;;0.17;0.17;;;23.50;67.80;;;;;;5094513;28;20385;-84
2023/07/01 10:23:17;;;;;;;0.32;0.32;;;23.70;67.80;;;;;;5094950;28;20028;-84
2023/07/01 10:25:43;;;;;;;1.00;0.85;;;23.80;67.10;;;;;;5093807;28;20114;-82
2023/07/01 10:28:10;;;;;;;1.02;0.55;;;23.90;67.10;;;;;;5094405;28;20115;-83
2023/07/01 10:30:55;;;;;;;2.10;1.20;;;24.10;67.20;;;;;;5093491;28;20063;-83
2023/07/01 10:33:39;;;;;;;1.15;1.08;;;24.30;67.20;;;;;;5094167;28;20063;-81
2023/07/01 10:36:08;;;;;;;1.20;0.85;;;24.30;66.90;;;;;;5093615;28;20156;-82
2023/07/01 10:38:36;;;;;;;1.35;1.25;;;24.40;67.10;;;;;;5093985;28;20126;-85
2023/07/01 10:41:03;;;;;;;0.20;0.20;;;24.60;65.90;;;;;;5093728;28;20036;-81
2023/07/01 10:43:33;;;;;;;0.63;0.32;;;24.80;65.50;;;;;;5077302;28;20040;-83
2023/07/01 10:46:23;;;;;;;1.23;0.80;;;24.90;64.60;;;;;;5093907;28;20045;-86
2023/07/01 10:49:08;;;;;;;0.50;0.45;;;25.30;63.80;;;;;;5094189;28;20036;-86
2023/07/01 10:51:53;;;;;;;0.52;0.50;;;26.60;60.30;;;;;;5093867;28;20086;-84
2023/07/01 10:54:40;;;;;;;0.40;0.40;;;27.60;57.80;;;;;;5095240;28;20119;-83
2023/07/01 10:57:18;;;;;;;1.15;0.77;;;28.00;57.30;;;;;;5077021;28;20427;-85
2023/07/01 10:59:45;;;;;;;0.55;0.55;;;28.10;54.90;;;;;;5093686;28;20115;-85
2023/07/01 11:02:50;;;;;;;0.60;0.60;;;28.10;54.10;;;;;;5093057;28;20488;-84
2023/07/01 11:05:16;;;;;;;1.80;0.68;;;28.10;54.60;;;;;;5093723;28;20036;-81
2023/07/01 11:07:43;;;;;;;6.40;3.30;;;29.10;52.50;;;;;;5093660;28;20095;-82
2023/07/01 11:10:10;;;;;;;1.13;0.80;;;29.80;49.60;;;;;;5075935;28;20048;-82
2023/07/01 11:12:36;;;;;;;1.40;1.02;;;30.00;49.10;;;;;;5076626;28;20032;-84
2023/07/01 11:15:02;;;;;;;1.77;0.60;;;31.00;46.00;;;;;;5093227;28;20566;-83
2023/07/01 11:17:28;;;;;;;1.90;1.60;;;32.30;42.70;;;;;;5093122;28;20043;-84
2023/07/01 11:19:56;;;;;;;2.85;0.85;;;33.90;40.00;;;;;;5093463;28;20039;-85
2023/07/01 11:22:23;;;;;;;1.27;0.95;;;34.70;37.40;;;;;;5093277;28;20086;-83
2023/07/01 11:24:49;;;;;;;1.77;0.50;;;34.80;37.10;;;;;;5093328;28;20035;-83
2023/07/01 11:27:17;;;;;;;1.98;1.30;;;35.90;36.00;;;;;;5076220;28;20032;-84
2023/07/01 11:29:47;;;;;;;1.52;1.00;;;37.30;33.10;;;;;;5092995;28;20040;-84
2023/07/01 11:32:14;;;;;;;0.55;0.50;;;38.10;29.60;;;;;;5092715;28;20020;-83
2023/07/01 11:34:59;;;;;;;1.58;0.82;;;37.70;29.90;;;;;;5092742;28;20051;-84
2023/07/01 11:37:28;;;;;;;0.40;0.40;;;36.80;31.70;;;;;;5075154;28;20092;-81
2023/07/01 11:39:54;;;;;;;1.73;0.90;;;35.70;30.60;;;;;;5092560;28;20051;-82
2023/07/01 11:42:20;;;;;;;0.60;0.55;;;35.30;31.30;;;;;;5075493;28;20039;-80
2023/07/01 11:44:46;;;;;;;0.70;0.50;;;34.80;32.30;;;;;;5092244;28;20032;-83
2023/07/01 11:47:14;;;;;;;0.90;0.82;;;34.20;33.20;;;;;;5092208;28;20028;-83
2023/07/01 11:49:41;;;;;;;0.65;0.60;;;33.60;34.20;;;;;;5092152;28;20118;-81
2023/07/01 11:52:07;;;;;;;1.58;1.15;;;33.40;35.40;;;;;;5075231;28;20035;-82
2023/07/01 11:54:54;;;;;;;0.70;0.70;;;34.40;34.80;;;;;;5092088;28;20077;-81
2023/07/01 11:57:22;;;;;;;0.50;0.50;;;34.30;34.30;;;;;;5091951;28;20028;-80
2023/07/01 11:59:52;;;;;;;0.55;0.55;;;33.80;35.00;;;;;;5093270;28;20051;-81
2023/07/01 12:02:37;;;;;;;2.78;1.10;;;33.70;35.50;;;;;;5092213;28;20032;-82
2023/07/01 12:05:04;;;;;;;0.45;0.45;;;33.90;35.60;;;;;;5093018;28;20032;-79
2023/07/01 12:07:30;;;;;;;0.98;0.77;;;34.80;33.40;;;;;;5093248;28;20036;-83
2023/07/01 12:09:56;;;;;;;0.73;0.60;;;36.50;31.70;;;;;;5091998;28;20123;-84
2023/07/01 12:12:41;;;;;;;0.38;0.38;;;38.00;30.20;;;;;;5074825;28;20082;-84
2023/07/01 12:15:27;;;;;;;0.70;0.60;;;39.80;28.60;;;;;;5074654;28;20036;-79
2023/07/01 12:17:53;;;;;;;1.60;1.50;;;41.10;27.50;;;;;;5091875;28;20078;-85
2023/07/01 12:20:21;;;;;;;0.60;0.57;;;42.00;25.90;;;;;;5092615;28;20519;-79
2023/07/01 12:22:47;;;;;;;0.85;0.77;;;42.60;25.60;;;;;;5091936;28;20034;-83
2023/07/01 12:25:14;;;;;;;1.48;1.20;;;42.50;24.70;;;;;;5092559;28;20028;-83
2023/07/01 12:27:40;;;;;;;0.95;0.75;;;41.20;24.90;;;;;;5075124;28;20127;-82
2023/07/01 12:30:07;;;;;;;1.25;0.93;;;40.30;26.00;;;;;;5091336;28;20036;-83
2023/07/01 12:32:33;;;;;;;1.35;1.15;;;40.40;25.70;;;;;;5091694;28;20036;-79
2023/07/01 12:34:59;;;;;;;0.43;0.43;;;39.40;27.10;;;;;;5092733;28;20031;-79
2023/07/01 12:37:26;;;;;;;0.63;0.60;;;38.60;28.00;;;;;;5091099;28;20036;-81
2023/07/01 12:39:53;;;;;;;1.65;0.98;;;37.60;27.90;;;;;;5091595;28;20481;-82
2023/07/01 12:42:21;;;;;;;0.98;0.65;;;38.60;26.70;;;;;;5074529;28;20035;-81
2023/07/01 12:44:47;;;;;;;0.77;0.77;;;40.30;25.00;;;;;;5074540;28;20111;-79
2023/07/01 12:47:13;;;;;;;1.38;0.75;;;41.80;23.70;;;;;;5091325;28;20032;-81
2023/07/01 12:49:40;;;;;;;0.77;0.65;;;42.90;22.80;;;;;;5074490;28;20423;-79
2023/07/01 12:52:06;;;;;;;1.08;0.95;;;43.30;22.10;;;;;;5074401;28;20181;-81
2023/07/01 12:54:33;;;;;;;0.77;0.77;;;43.70;21.10;;;;;;5091360;28;20064;-79
2023/07/01 12:57:00;;;;;;;0.88;0.70;;;44.00;20.70;;;;;;5091123;28;20118;-81
2023/07/01 12:59:26;;;;;;;1.05;0.90;;;43.40;21.30;;;;;;5074359;28;20040;-80
2023/07/01 13:01:52;;;;;;;1.42;0.80;;;42.70;21.80;;;;;;5074139;28;20043;-83
2023/07/01 13:04:19;;;;;;;2.13;1.02;;;42.30;22.40;;;;;;5092572;28;20055;-83
2023/07/01 13:06:47;;;;;;;1.15;0.80;;;41.50;21.90;;;;;;5074147;28;20093;-79
2023/07/01 13:09:14;;;;;;;0.80;0.65;;;40.40;23.30;;;;;;5074221;28;20059;-83
2023/07/01 13:11:40;;;;;;;1.90;1.30;;;39.30;24.50;;;;;;5090912;28;20111;-80
2023/07/01 13:14:30;;;;;;;1.17;0.88;;;38.40;25.90;;;;;;5074330;28;20036;-78
2023/07/01 13:16:56;;;;;;;0.77;0.55;;;37.20;26.40;;;;;;5074210;28;20067;-81
2023/07/01 13:19:22;;;;;;;1.65;0.90;;;36.20;27.70;;;;;;5091102;28;20035;-81
2023/07/01 13:21:49;;;;;;;1.98;0.90;;;35.30;28.70;;;;;;5090779;28;20032;-79